Weather at Hahn Sky Ranch Airport

Public forecast

Using degrees Fahrenheit for public forecast. Weather courtesy of forecast.io.

Closest aviation weather report (METAR) to Hahn Sky Ranch Airport

Closest report is West Bend Municipal Airport, 7.6 nm (14.0 km) ESE. Retrieved 2021/06/12 17:35 UTC (6 minutes ago):

KETB 121735Z AUTO 35006KT 10SM CLR 29/20 A2988 RMK AO2

Closest aviation forecast (TAF) to Hahn Sky Ranch Airport

Closest forecast is Waukesha County Airport, 25.6 nm (47.5 km) S. Retrieved 2021/06/12 12:22 UTC (5 hours ago):

TAF KUES 121120Z 1212/1312 VRB03KT P6SM SCT250 FM121400 33003KT P6SM SCT050 FM121700 33007KT P6SM SCT050 FM130200 32004KT P6SM FEW250